• Join FlightAware (Why Join?)
  • Login
  • US Flag 
10:05PM EDT


 

Airport Tracker/Info


-or-


 

Live Flight TrackerFlight Track Log ✈ AWE4096 ✈ 29-Jun-2013 ✈ KDCA - KMHT

Flight Track Log - Related Links

Times and Time Zones

All times are in EDT time to prevent confusion due to time zone crossing. See the AWE4096 flight status page for this flight to view local times or setup timezone preferences in your user account.

Time Position Orientation Groundspeed Altitude Reporting Facility
EDT Latitude Longitude Course Direction KTS MPH feet Rate Location/Type
09:14PM 38.8167 -77.0333 90° East 161 185 1,200  Level Potomac TRACON
09:16PM 38.9801 -76.6565 57° Northeast  Level FlightAware Approximate
09:16PM 38.7306 -76.9542 144° Southeast 176 203 5,300  Level Washington Center
09:17PM 39.0289 -76.5301 67° East  Level FlightAware Approximate
09:17PM 38.8000 -76.9022 30° Northeast 166 191 7,600  Level Washington Center
09:18PM 39.0792 -76.4041 61° Northeast  Level FlightAware Approximate
09:18PM 38.8814 -76.8983 North 220 253 9,800  Level Washington Center
09:19PM 39.1167 -76.2748 90° East  Level FlightAware Approximate
09:19PM 38.9647 -76.8944 North 252 290 11,900  Level Washington Center
09:20PM 39.0300 -76.8181 42° Northeast 287 330 12,500 840 Climbing Washington Center
09:21PM 39.0544 -76.6847 77° East 305 351 13,600 1,020 Climbing Washington Center
09:22PM 39.0847 -76.5489 74° East 349 402 14,600 960 Climbing Washington Center
09:23PM 39.1294 -76.4183 66° East 378 435 15,600 960 Climbing Washington Center
09:24PM 39.2381 -76.3822 14° North 359 413 16,600 900 Climbing Washington Center
09:25PM 39.2992 -76.2619 57° Northeast 373 429 17,500 840 Climbing Washington Center
09:26PM 39.2747 -76.1358 104° East 347 399 18,300 780 Climbing Washington Center
09:27PM 39.2275 -75.9936 113° Southeast 367 422 19,100 660 Climbing Washington Center
09:28PM 39.2214 -75.8461 93° East 389 448 19,700 540 Climbing Washington Center
09:29PM 39.3050 -75.7283 47° Northeast 388 447 20,200 480 Climbing Washington Center
09:30PM 39.3989 -75.6103 44° Northeast 404 465 20,700 540 Climbing Washington Center
09:31PM 39.4886 -75.4975 44° Northeast 433 498 21,300 420 Climbing Washington Center
09:32PM 39.5822 -75.3842 43° Northeast 448 516 21,600 360 Climbing Washington Center
09:33PM 39.7069 -75.3594 North 430 495 22,100 300 Climbing Washington Center
09:34PM 39.8153 -75.2700 32° Northeast 435 501 22,300 300 Climbing Washington Center
09:35PM 39.9108 -75.1606 41° Northeast 456 525 22,700 540 Climbing New York Center
09:36PM 40.0153 -75.0450 40° Northeast 463 533 23,400 660 Climbing New York Center
09:37PM 40.0822 -74.9217 55° Northeast 468 539 24,000 720 Climbing New York Center
09:38PM 40.1258 -74.7450 72° East 455 524 24,900 600 Climbing New York Center
09:39PM 40.1750 -74.5822 68° East 473 544 25,200 420 Climbing New York Center
09:40PM 40.2619 -74.4700 45° Northeast 495 570 25,800 660 Climbing New York Center
09:41PM 40.3878 -74.4414 10° North 453 521 26,600 780 Climbing New York Center
09:42PM 40.5158 -74.4100 11° North 446 513 27,400 780 Climbing New York Center
09:43PM 40.6400 -74.3756 12° North 451 519 28,200 780 Climbing New York Center
09:44PM 40.7639 -74.3439 11° North 451 519 29,000 240 Climbing New York Center
09:46PM 41.0644 -74.2653 11° North 472 543 29,000  Level Boston Center
09:47PM 41.1836 -74.2328 12° North 472 543 29,000  Level Boston Center
09:48PM 41.3303 -74.1928 12° North 479 551 29,000  Level Boston Center
09:49PM 41.4725 -74.1522 12° North 498 573 29,000  Level Boston Center
09:50PM 41.6044 -74.1169 11° North 515 593 29,000  Level Boston Center
09:51PM 41.7425 -74.0789 12° North 515 593 29,000  Level Boston Center
09:52PM 41.8583 -73.9928 29° Northeast 489 563 29,000  Level Boston Center
09:53PM 41.9292 -73.8214 61° Northeast 480 552 29,000  Level Boston Center
09:54PM 42.0042 -73.6497 60° Northeast 500 575 29,000 -600 Level Boston Center
09:56PM 42.1003 -73.4278 60° Northeast 559 643 27,700 -1,260 Descending Boston Center
09:57PM 42.1850 -73.2275 60° Northeast 528 608 26,100 -1,500 Descending Boston Center
09:58PM 42.2592 -73.0517 60° Northeast 528 608 24,500 -1,800 Descending Boston Center
09:59PM 42.3392 -72.8642 60° Northeast 523 602 22,600 -1,680 Descending Boston Center
10:00PM 42.4022 -72.7128 61° Northeast 521 600 21,200 -1,500 Descending Boston Center
10:01PM 42.4692 -72.5497 61° Northeast 497 572 19,600 -2,520 Descending Boston Center
10:02PM 42.5381 -72.3978 58° Northeast 462 532 16,200 -3,180 Descending Boston Center
10:03PM 42.5919 -72.2625 62° Northeast 447 514 13,300 -3,000 Descending Boston Center
10:04PM 42.6542 -72.1097 61° Northeast 427 491 10,300 -1,860 Descending Boston Center
10:05PM 42.6975 -72.0050 61° Northeast 386 444 9,600 -1,440 Descending Boston Center
10:06PM 42.7261 -71.8861 72° East 318 366 7,500 -1,800 Descending Boston Center
10:07PM 42.7297 -71.7814 87° East 293 337 6,000 -1,260 Descending Boston Center
10:08PM 42.7583 -71.6625 72° East 293 337 5,000 -840 Descending Boston Center
10:09PM 42.7783 -71.5689 74° East 293 337 4,400 -600 Descending Boston Center